createdAt,value
2018-10-17T00:00:54.195Z,32.70
2018-10-17T00:03:22.765Z,33.73
2018-10-17T00:05:51.434Z,38.67
2018-10-17T00:08:20.264Z,33.60
2018-10-17T00:10:48.771Z,36.17
2018-10-17T00:13:17.493Z,37.20
2018-10-17T00:17:15.470Z,36.73
2018-10-17T00:19:43.934Z,37.33
2018-10-17T00:22:13.094Z,35.53
2018-10-17T00:24:42.016Z,35.10
2018-10-17T00:27:10.976Z,37.10
2018-10-17T00:29:39.566Z,32.30
2018-10-17T00:32:08.416Z,32.80
2018-10-17T00:34:37.266Z,32.40
2018-10-17T00:37:06.264Z,34.03
2018-10-17T00:39:34.866Z,32.70
2018-10-17T00:42:03.724Z,34.00
2018-10-17T00:44:32.534Z,32.03
2018-10-17T00:47:01.392Z,30.83
2018-10-17T00:49:30.085Z,28.70
2018-10-17T00:51:58.844Z,31.77
2018-10-17T00:54:27.348Z,29.67
2018-10-17T00:56:55.817Z,29.80
2018-10-17T00:59:24.356Z,29.13
2018-10-17T01:01:53.067Z,26.97
2018-10-17T01:04:21.616Z,26.40
2018-10-17T01:06:50.159Z,29.03
2018-10-17T01:09:18.819Z,29.70
2018-10-17T01:11:47.524Z,25.77
2018-10-17T01:14:16.199Z,28.13
2018-10-17T01:16:45.227Z,26.73
2018-10-17T01:19:14.067Z,28.90
2018-10-17T01:21:42.902Z,30.77
2018-10-17T01:24:11.458Z,30.13
2018-10-17T01:26:40.358Z,31.40
2018-10-17T01:29:09.063Z,30.10
2018-10-17T01:31:37.672Z,29.37
2018-10-17T01:34:06.320Z,31.73
2018-10-17T01:36:34.816Z,27.70
2018-10-17T01:39:03.733Z,28.83
2018-10-17T01:41:32.360Z,26.60
2018-10-17T01:44:01.078Z,25.13
2018-10-17T01:46:29.845Z,23.80
2018-10-17T01:48:58.718Z,27.20
2018-10-17T01:51:27.196Z,28.57
2018-10-17T01:53:55.755Z,32.03
2018-10-17T01:56:24.866Z,29.63
2018-10-17T01:58:53.377Z,26.97
2018-10-17T02:01:21.875Z,27.77
2018-10-17T02:03:50.575Z,27.77
2018-10-17T02:06:19.341Z,27.33
2018-10-17T02:08:47.941Z,26.03
2018-10-17T02:11:16.439Z,29.73
2018-10-17T02:13:44.931Z,28.03
2018-10-17T02:16:13.611Z,28.43
2018-10-17T02:18:42.339Z,29.87
2018-10-17T02:21:10.868Z,27.60
2018-10-17T02:23:39.577Z,30.83
2018-10-17T02:26:08.246Z,26.33
2018-10-17T02:28:36.925Z,26.50
2018-10-17T02:31:05.635Z,29.50
2018-10-17T02:33:34.376Z,26.70
2018-10-17T02:36:03.005Z,27.27
2018-10-17T02:38:31.546Z,28.77
2018-10-17T02:41:00.045Z,26.37
2018-10-17T02:43:28.563Z,26.53
2018-10-17T02:45:57.222Z,29.83
2018-10-17T02:48:25.747Z,28.30
2018-10-17T02:50:54.328Z,28.03
2018-10-17T02:53:22.953Z,28.37
2018-10-17T02:55:51.666Z,28.27
2018-10-17T02:58:20.215Z,27.67
2018-10-17T03:00:48.826Z,26.23
2018-10-17T03:03:17.499Z,45.67
2018-10-17T03:05:46.053Z,29.27
2018-10-17T03:09:44.040Z,24.63
2018-10-17T03:12:12.667Z,35.70
2018-10-17T03:14:41.271Z,26.43
2018-10-17T03:17:10.045Z,26.03
2018-10-17T03:19:38.575Z,27.13
2018-10-17T03:22:07.095Z,26.00
2018-10-17T03:24:35.721Z,27.67
2018-10-17T03:27:04.663Z,25.47
2018-10-17T03:29:33.311Z,28.13
2018-10-17T03:32:02.122Z,26.93
2018-10-17T03:34:30.908Z,26.03
2018-10-17T03:36:59.650Z,29.20
2018-10-17T03:39:28.365Z,30.07
2018-10-17T03:41:56.938Z,28.60
2018-10-17T03:44:25.685Z,29.10
2018-10-17T03:46:54.183Z,29.33
2018-10-17T03:49:22.873Z,30.17
2018-10-17T03:51:51.673Z,27.93
2018-10-17T03:54:20.360Z,26.97
2018-10-17T03:56:48.991Z,27.80
2018-10-17T03:59:17.783Z,29.57
2018-10-17T04:01:46.158Z,28.77
2018-10-17T04:04:14.810Z,26.53
2018-10-17T04:06:43.550Z,27.47
2018-10-17T04:09:12.160Z,28.20
2018-10-17T04:11:40.766Z,26.07
2018-10-17T04:14:09.260Z,26.77
2018-10-17T04:16:37.845Z,26.73
2018-10-17T04:19:06.437Z,26.47
2018-10-17T04:21:35.169Z,26.33
2018-10-17T04:24:03.737Z,26.60
2018-10-17T04:26:32.551Z,26.47
2018-10-17T04:29:01.222Z,25.70
2018-10-17T04:31:29.950Z,26.80
2018-10-17T04:33:58.571Z,27.70
2018-10-17T04:36:27.142Z,27.23
2018-10-17T04:38:55.656Z,25.93
2018-10-17T04:41:24.333Z,25.17
2018-10-17T04:43:52.796Z,26.57
2018-10-17T04:46:21.639Z,27.97
2018-10-17T04:48:50.212Z,29.40
2018-10-17T04:51:19.321Z,28.03
2018-10-17T04:53:47.812Z,29.00
2018-10-17T04:56:16.430Z,29.03
2018-10-17T04:58:45.061Z,29.27
2018-10-17T05:01:13.837Z,33.93
2018-10-17T05:03:42.536Z,31.37
2018-10-17T05:06:11.218Z,29.83
2018-10-17T05:08:40.299Z,29.43
2018-10-17T05:11:08.875Z,35.17
2018-10-17T05:13:37.508Z,33.33
2018-10-17T05:16:06.367Z,36.63
2018-10-17T05:18:35.033Z,33.00
2018-10-17T05:21:03.892Z,34.40
2018-10-17T05:23:32.582Z,33.53
2018-10-17T05:26:01.285Z,32.00
2018-10-17T05:28:29.860Z,32.20
2018-10-17T05:30:58.516Z,34.47
2018-10-17T05:33:27.088Z,36.13
2018-10-17T05:35:55.844Z,38.63
2018-10-17T05:38:24.382Z,39.07
2018-10-17T05:40:52.930Z,41.63
2018-10-17T05:43:21.696Z,41.17
2018-10-17T05:45:50.406Z,44.60
2018-10-17T05:48:19.109Z,37.37
2018-10-17T05:50:47.827Z,36.10
2018-10-17T05:53:16.608Z,39.13
2018-10-17T05:55:45.766Z,40.33
2018-10-17T05:58:15.435Z,36.33
2018-10-17T06:00:46.162Z,34.73
2018-10-17T06:03:16.541Z,35.83
2018-10-17T06:05:45.686Z,37.87
2018-10-17T06:08:14.435Z,35.80
2018-10-17T06:10:43.498Z,33.73
2018-10-17T06:13:15.462Z,32.33
2018-10-17T06:15:48.066Z,35.17
2018-10-17T06:18:16.790Z,31.60
2018-10-17T06:20:45.461Z,33.60
2018-10-17T06:23:19.432Z,33.23
2018-10-17T06:25:48.325Z,30.97
2018-10-17T06:28:18.720Z,29.13
2018-10-17T06:30:49.556Z,28.53
2018-10-17T06:33:18.435Z,29.60
2018-10-17T06:35:48.208Z,29.73
2018-10-17T06:38:22.126Z,26.20
2018-10-17T06:40:53.669Z,25.03
2018-10-17T06:43:22.667Z,26.30
2018-10-17T06:45:52.579Z,31.40
2018-10-17T06:48:22.068Z,33.53
2018-10-17T06:50:53.431Z,37.13
2018-10-17T06:53:22.691Z,36.03
2018-10-17T06:55:51.519Z,40.63
2018-10-17T06:58:20.499Z,37.43
2018-10-17T07:00:49.657Z,39.70
2018-10-17T07:03:21.819Z,36.53
2018-10-17T07:05:52.451Z,35.30
2018-10-17T07:08:21.506Z,34.57
2018-10-17T07:10:53.842Z,33.43
2018-10-17T07:13:22.675Z,33.83
2018-10-17T07:15:55.245Z,35.07
2018-10-17T07:18:24.421Z,33.23
2018-10-17T07:20:56.316Z,41.77
2018-10-17T07:23:25.211Z,37.53
2018-10-17T07:25:57.751Z,34.23
2018-10-17T07:28:26.364Z,36.00
2018-10-17T07:30:55.196Z,33.00
2018-10-17T07:33:24.008Z,33.43
2018-10-17T07:35:56.642Z,38.53
2018-10-17T07:38:25.437Z,39.67
2018-10-17T07:40:54.358Z,39.00
2018-10-17T07:43:23.314Z,42.30
2018-10-17T07:45:51.876Z,39.83
2018-10-17T07:48:22.423Z,42.73
2018-10-17T07:50:51.611Z,42.60
2018-10-17T07:53:21.913Z,42.53
2018-10-17T07:55:55.740Z,39.87
2018-10-17T07:58:27.046Z,36.43
2018-10-17T08:00:57.196Z,28.57
2018-10-17T08:03:28.145Z,33.50
2018-10-17T08:05:56.915Z,29.97
2018-10-17T08:08:25.709Z,31.00
2018-10-17T08:10:55.403Z,33.10
2018-10-17T08:13:28.226Z,32.67
2018-10-17T08:15:58.602Z,29.27
2018-10-17T08:18:29.848Z,30.00
2018-10-17T08:20:58.932Z,29.03
2018-10-17T08:23:27.835Z,29.10
2018-10-17T08:26:11.740Z,28.67
2018-10-17T08:28:40.424Z,30.53
2018-10-17T08:31:12.990Z,27.93
2018-10-17T08:33:42.375Z,29.43
2018-10-17T08:36:12.244Z,26.67
2018-10-17T08:38:44.868Z,24.73
2018-10-17T08:41:38.730Z,25.30
2018-10-17T08:44:09.531Z,27.73
2018-10-17T08:46:38.676Z,27.60
2018-10-17T08:49:12.727Z,29.07
2018-10-17T08:51:43.036Z,25.90
2018-10-17T08:54:12.445Z,24.67
2018-10-17T08:56:42.158Z,22.10
2018-10-17T08:59:12.131Z,22.97
2018-10-17T09:01:42.444Z,24.33
2018-10-17T09:04:13.100Z,23.67
2018-10-17T09:06:42.291Z,27.97
2018-10-17T09:09:13.308Z,23.07
2018-10-17T09:11:42.683Z,25.30
2018-10-17T09:14:12.120Z,23.13
2018-10-17T09:16:41.729Z,23.73
2018-10-17T09:19:11.531Z,23.77
2018-10-17T09:21:47.563Z,27.63
2018-10-17T09:24:18.699Z,24.40
2018-10-17T09:26:50.636Z,21.70
2018-10-17T09:29:20.569Z,23.23
2018-10-17T09:31:51.055Z,22.87
2018-10-17T09:34:20.627Z,20.93
2018-10-17T09:36:49.881Z,20.53
2018-10-17T09:39:25.280Z,19.30
2018-10-17T09:41:55.759Z,20.40
2018-10-17T09:44:25.509Z,20.57
2018-10-17T09:46:58.250Z,20.27
2018-10-17T09:49:28.944Z,20.70
2018-10-17T09:51:58.572Z,18.40
2018-10-17T09:54:32.482Z,19.57
2018-10-17T09:57:02.746Z,20.07
2018-10-17T09:59:35.085Z,22.10
2018-10-17T10:02:09.020Z,20.43
2018-10-17T10:04:39.197Z,20.10
2018-10-17T10:07:08.332Z,19.67
2018-10-17T10:09:37.182Z,19.83
2018-10-17T10:12:07.212Z,24.70
2018-10-17T10:14:38.452Z,20.23
2018-10-17T10:17:08.431Z,19.90
2018-10-17T10:19:38.370Z,21.60
2018-10-17T10:22:07.491Z,20.87
2018-10-17T10:24:40.105Z,21.13
2018-10-17T10:27:10.569Z,16.13
2018-10-17T10:29:44.444Z,17.97
2018-10-17T10:32:14.981Z,17.03
2018-10-17T10:34:44.904Z,17.63
2018-10-17T10:37:14.582Z,15.93
2018-10-17T10:39:43.433Z,19.17
2018-10-17T10:42:12.870Z,16.43
2018-10-17T10:44:41.582Z,16.87
2018-10-17T10:47:11.237Z,18.27
2018-10-17T10:49:41.551Z,18.40
2018-10-17T10:52:10.412Z,18.73
2018-10-17T10:54:41.801Z,16.53
2018-10-17T10:57:11.220Z,17.00
2018-10-17T10:59:40.446Z,17.37
2018-10-17T11:02:12.682Z,15.97
2018-10-17T11:04:42.843Z,16.13
2018-10-17T11:07:14.725Z,15.70
2018-10-17T11:09:44.580Z,17.13
2018-10-17T11:12:16.954Z,16.73
2018-10-17T11:14:46.541Z,16.00
2018-10-17T11:17:16.692Z,15.53
2018-10-17T11:19:45.676Z,17.57
2018-10-17T11:22:14.509Z,16.23
2018-10-17T11:24:44.300Z,14.47
2018-10-17T11:27:13.021Z,14.67
2018-10-17T11:29:42.041Z,14.73
2018-10-17T11:32:11.792Z,13.53
2018-10-17T11:34:40.858Z,13.93
2018-10-17T11:37:09.940Z,12.83
2018-10-17T11:39:39.419Z,13.97
2018-10-17T11:42:14.610Z,11.73
2018-10-17T11:44:43.739Z,12.63
2018-10-17T11:47:12.715Z,10.53
2018-10-17T11:49:41.574Z,10.87
2018-10-17T11:52:10.422Z,11.60
2018-10-17T11:54:39.274Z,10.40
2018-10-17T11:57:11.376Z,11.67
2018-10-17T11:59:42.886Z,11.43
2018-10-17T12:02:17.793Z,10.37
2018-10-17T12:04:47.364Z,10.13
2018-10-17T12:07:16.372Z,8.67
2018-10-17T12:09:46.103Z,8.87
2018-10-17T12:12:16.244Z,9.57
2018-10-17T12:14:46.748Z,9.33
2018-10-17T12:17:15.386Z,9.97
2018-10-17T12:19:44.143Z,6.47
2018-10-17T12:22:12.830Z,6.90
2018-10-17T12:24:41.492Z,6.67
2018-10-17T12:27:10.213Z,6.77
2018-10-17T12:29:39.296Z,8.40
2018-10-17T12:32:08.398Z,7.90
2018-10-17T12:34:43.084Z,8.47
2018-10-17T12:37:12.695Z,7.30
2018-10-17T12:39:41.545Z,9.43
2018-10-17T12:42:11.249Z,8.27
2018-10-17T12:44:40.056Z,9.53
2018-10-17T12:47:10.270Z,8.47
2018-10-17T12:49:40.325Z,8.20
2018-10-17T12:52:09.324Z,8.43
2018-10-17T12:54:38.853Z,7.60
2018-10-17T12:57:08.881Z,8.10
2018-10-17T12:59:37.885Z,7.60
2018-10-17T13:02:08.554Z,10.23
2018-10-17T13:04:43.264Z,8.47
2018-10-17T13:07:13.003Z,6.70
2018-10-17T13:09:44.745Z,7.43
2018-10-17T13:12:14.475Z,8.13
2018-10-17T13:14:47.914Z,9.03
2018-10-17T13:17:16.598Z,8.53
2018-10-17T13:19:45.245Z,7.70
2018-10-17T13:22:16.045Z,7.37
2018-10-17T13:24:44.738Z,7.30
2018-10-17T13:27:13.706Z,7.87
2018-10-17T13:29:42.549Z,7.53
2018-10-17T13:32:11.234Z,8.63
2018-10-17T13:34:40.168Z,7.43
2018-10-17T13:37:14.633Z,6.87
2018-10-17T13:39:44.375Z,8.23
2018-10-17T13:42:15.361Z,7.57
2018-10-17T13:44:47.360Z,7.33
2018-10-17T13:47:16.412Z,6.17
2018-10-17T13:49:46.125Z,7.20
2018-10-17T13:52:14.927Z,6.30
2018-10-17T13:54:44.116Z,6.17
2018-10-17T13:57:12.891Z,7.00
2018-10-17T13:59:48.542Z,7.90
2018-10-17T14:02:21.966Z,5.80
2018-10-17T14:04:58.832Z,6.93
2018-10-17T14:07:27.448Z,6.47
2018-10-17T14:09:56.151Z,6.27
2018-10-17T14:12:25.116Z,6.37
2018-10-17T14:14:57.214Z,6.80
2018-10-17T14:17:29.139Z,8.27
2018-10-17T14:20:03.619Z,8.23
2018-10-17T14:22:32.573Z,6.37
2018-10-17T14:25:01.250Z,7.87
2018-10-17T14:27:31.219Z,11.33
2018-10-17T14:30:00.800Z,5.47
2018-10-17T14:32:29.359Z,6.73
2018-10-17T14:35:04.923Z,6.23
2018-10-17T14:37:33.805Z,8.70
2018-10-17T14:40:02.948Z,5.90
2018-10-17T14:45:24.713Z,6.40
2018-10-17T14:47:54.210Z,9.70
2018-10-17T14:50:25.271Z,7.40
2018-10-17T14:52:56.985Z,6.20
2018-10-17T14:55:26.680Z,8.23
2018-10-17T14:57:57.752Z,5.27
2018-10-17T15:00:26.483Z,4.73
2018-10-17T15:02:56.039Z,5.30
2018-10-17T15:08:04.085Z,5.40
2018-10-17T15:10:33.080Z,4.97
2018-10-17T15:13:03.708Z,5.20
2018-10-17T15:15:37.703Z,5.40
2018-10-17T15:18:07.757Z,5.00
2018-10-17T15:20:37.157Z,5.73
2018-10-17T15:23:06.448Z,5.93
2018-10-17T15:25:36.068Z,5.20
2018-10-17T15:28:04.773Z,6.83
2018-10-17T15:30:33.712Z,4.50
2018-10-17T15:33:03.267Z,5.57
2018-10-17T15:35:32.690Z,4.53
2018-10-17T15:38:01.309Z,3.63
2018-10-17T15:40:33.229Z,3.93
2018-10-17T15:43:03.453Z,3.83
2018-10-17T15:58:33.384Z,5.53
2018-10-17T16:01:02.647Z,5.13
2018-10-17T16:03:31.905Z,3.23
2018-10-17T16:06:00.796Z,4.80
2018-10-17T16:08:32.534Z,3.87
2018-10-17T16:11:06.750Z,4.57
2018-10-17T16:13:36.898Z,4.07
2018-10-17T16:16:05.749Z,4.93
2018-10-17T16:18:36.544Z,4.63
2018-10-17T16:21:10.472Z,3.80
2018-10-17T16:23:39.611Z,4.63
2018-10-17T16:26:13.353Z,3.53
2018-10-17T16:28:47.529Z,3.57
2018-10-17T16:31:16.900Z,3.73
2018-10-17T16:33:46.703Z,3.80
2018-10-17T16:36:17.131Z,4.00
2018-10-17T16:38:48.499Z,5.87
2018-10-17T16:41:17.320Z,5.57
2018-10-17T16:43:46.216Z,4.20
2018-10-17T16:46:16.062Z,4.67
2018-10-17T16:48:48.472Z,4.00
2018-10-17T16:51:17.287Z,4.73
2018-10-17T16:53:49.302Z,5.90
2018-10-17T16:56:18.324Z,4.67
2018-10-17T16:58:48.448Z,5.13
2018-10-17T17:01:17.356Z,5.47
2018-10-17T17:03:47.434Z,6.90
2018-10-17T17:06:17.323Z,6.80
2018-10-17T17:08:48.059Z,5.90
2018-10-17T17:11:18.847Z,5.20
2018-10-17T17:13:48.104Z,5.87
2018-10-17T17:16:19.629Z,6.43
2018-10-17T17:18:49.811Z,6.73
2018-10-17T17:21:18.743Z,6.20
2018-10-17T17:23:47.538Z,5.90
2018-10-17T17:26:16.459Z,6.90
2018-10-17T17:28:45.245Z,5.67
2018-10-17T17:31:14.168Z,9.10
2018-10-17T17:33:43.026Z,8.87
2018-10-17T17:36:11.910Z,7.83
2018-10-17T17:38:40.711Z,6.27
2018-10-17T17:41:10.825Z,6.37
2018-10-17T17:43:39.753Z,6.33
2018-10-17T17:46:08.627Z,7.17
2018-10-17T17:48:37.528Z,6.60
2018-10-17T17:51:06.448Z,6.93
2018-10-17T17:53:35.255Z,8.60
2018-10-17T17:56:07.533Z,9.70
2018-10-17T17:58:37.006Z,11.53
2018-10-17T18:01:05.942Z,10.37
2018-10-17T18:03:34.781Z,11.83
2018-10-17T18:06:03.829Z,15.23
2018-10-17T18:08:32.930Z,19.47
2018-10-17T18:11:17.801Z,25.70
2018-10-17T18:13:46.695Z,29.67
2018-10-17T18:16:15.485Z,28.53
2018-10-17T18:18:44.607Z,28.70
2018-10-17T18:21:13.570Z,31.77
2018-10-17T18:23:43.636Z,32.57
2018-10-17T18:26:12.862Z,27.93
2018-10-17T18:28:42.313Z,23.20
2018-10-17T18:31:11.361Z,23.53
2018-10-17T18:33:40.178Z,26.33
2018-10-17T18:36:09.220Z,20.87
2018-10-17T18:38:38.078Z,17.40
2018-10-17T18:41:07.051Z,15.93
2018-10-17T18:43:35.947Z,17.10
2018-10-17T18:46:04.999Z,13.93
2018-10-17T18:48:33.881Z,13.60
2018-10-17T18:51:03.023Z,15.37
2018-10-17T18:53:36.558Z,12.30
2018-10-17T18:56:05.664Z,14.27
2018-10-17T18:58:34.546Z,12.23
2018-10-17T19:01:03.413Z,12.07
2018-10-17T19:03:32.344Z,11.07
2018-10-17T19:06:01.164Z,13.07
2018-10-17T19:08:30.075Z,12.27
2018-10-17T19:10:58.991Z,12.80
2018-10-17T19:13:27.869Z,12.43
2018-10-17T19:15:56.724Z,13.10
2018-10-17T19:18:25.704Z,12.77
2018-10-17T19:20:54.846Z,11.70
2018-10-17T19:23:23.721Z,12.00
2018-10-17T19:25:52.426Z,14.37
2018-10-17T19:28:21.229Z,11.40
2018-10-17T19:30:50.751Z,11.63
2018-10-17T19:33:20.116Z,12.47
2018-10-17T19:35:49.477Z,12.17
2018-10-17T19:38:18.450Z,11.43
2018-10-17T19:40:48.016Z,13.63
2018-10-17T19:43:17.046Z,12.97
2018-10-17T19:45:46.377Z,13.43
2018-10-17T19:48:15.659Z,14.10
2018-10-17T19:50:44.854Z,15.43
2018-10-17T19:53:13.825Z,13.40
2018-10-17T19:55:42.951Z,14.40
2018-10-17T19:58:11.562Z,14.40
2018-10-17T20:00:40.440Z,12.70
2018-10-17T20:03:09.497Z,12.80
2018-10-17T20:05:38.330Z,15.00
2018-10-17T20:08:07.012Z,12.83
2018-10-17T20:10:35.824Z,14.37
2018-10-17T20:13:04.720Z,13.23
2018-10-17T20:15:33.405Z,13.10
2018-10-17T20:18:02.218Z,16.50
2018-10-17T20:20:31.180Z,15.37
2018-10-17T20:23:00.004Z,14.93
2018-10-17T20:25:29.770Z,15.63
2018-10-17T20:27:58.540Z,19.13
2018-10-17T20:30:27.226Z,19.57
2018-10-17T20:32:56.343Z,21.37
2018-10-17T20:35:25.186Z,19.63
2018-10-17T20:37:54.224Z,18.93
2018-10-17T20:40:23.212Z,21.63
2018-10-17T20:42:51.918Z,18.33
2018-10-17T20:45:20.681Z,20.57
2018-10-17T20:47:50.106Z,17.53
2018-10-17T20:50:18.942Z,16.80
2018-10-17T20:52:47.793Z,14.60
2018-10-17T20:55:17.792Z,17.70
2018-10-17T20:57:47.039Z,15.07
2018-10-17T21:00:15.801Z,13.97
2018-10-17T21:02:44.270Z,17.47
2018-10-17T21:05:12.957Z,14.63
2018-10-17T21:07:41.586Z,14.93
2018-10-17T21:10:10.139Z,14.37
2018-10-17T21:12:38.789Z,15.63
2018-10-17T21:15:08.110Z,14.47
2018-10-17T21:17:36.697Z,15.87
2018-10-17T21:20:05.707Z,16.43
2018-10-17T21:22:34.533Z,15.17
2018-10-17T21:25:03.051Z,13.10
2018-10-17T21:27:31.634Z,13.13
2018-10-17T21:30:00.448Z,15.50
2018-10-17T21:32:28.933Z,13.97
2018-10-17T21:34:57.651Z,15.40
2018-10-17T21:37:26.575Z,13.23
2018-10-17T21:39:55.253Z,13.93
2018-10-17T21:42:23.936Z,13.63
2018-10-17T21:44:52.675Z,14.03
2018-10-17T21:47:21.413Z,15.30
2018-10-17T21:49:50.105Z,13.83
2018-10-17T21:52:18.789Z,14.03
2018-10-17T21:54:47.414Z,14.07
2018-10-17T21:57:16.153Z,14.73
2018-10-17T21:59:44.828Z,14.73
2018-10-17T22:02:13.460Z,14.63
2018-10-17T22:04:42.149Z,14.30
2018-10-17T22:07:10.856Z,14.93
2018-10-17T22:09:39.404Z,13.47
2018-10-17T22:12:08.157Z,16.87
2018-10-17T22:14:36.796Z,15.10
2018-10-17T22:17:07.070Z,13.37
2018-10-17T22:19:36.911Z,16.37
2018-10-17T22:22:06.230Z,14.07
2018-10-17T22:24:34.970Z,15.87
2018-10-17T22:27:03.641Z,13.27
2018-10-17T22:29:32.205Z,13.93
2018-10-17T22:32:00.953Z,14.17
2018-10-17T22:34:29.600Z,14.27
2018-10-17T22:36:58.265Z,14.23
2018-10-17T22:39:26.768Z,14.63
2018-10-17T22:41:55.418Z,15.37
2018-10-17T22:44:24.009Z,13.47
2018-10-17T22:46:52.705Z,13.37
2018-10-17T22:49:21.320Z,13.80
2018-10-17T22:51:49.962Z,13.13
2018-10-17T22:54:18.678Z,12.93
2018-10-17T22:56:47.332Z,14.33
2018-10-17T22:59:15.863Z,13.63
2018-10-17T23:01:44.547Z,13.50
2018-10-17T23:04:13.257Z,13.97
2018-10-17T23:06:42.534Z,12.33
2018-10-17T23:09:13.180Z,12.63
2018-10-17T23:11:42.532Z,12.23
2018-10-17T23:14:11.909Z,12.67
2018-10-17T23:16:41.693Z,12.53
2018-10-17T23:19:11.187Z,12.37
2018-10-17T23:21:40.300Z,13.83
2018-10-17T23:24:09.239Z,15.37
2018-10-17T23:26:37.966Z,12.17
2018-10-17T23:29:06.910Z,13.33
2018-10-17T23:31:35.795Z,14.47
2018-10-17T23:34:04.693Z,13.63
2018-10-17T23:36:33.484Z,12.37
2018-10-17T23:39:02.462Z,14.03
2018-10-17T23:41:32.697Z,12.33
2018-10-17T23:44:02.587Z,13.37
2018-10-17T23:46:31.522Z,12.67
2018-10-17T23:49:01.098Z,13.00
2018-10-17T23:51:30.454Z,14.47
2018-10-17T23:53:59.314Z,12.80
2018-10-17T23:56:28.079Z,16.67
2018-10-17T23:58:56.930Z,13.10
